Conroe's Hourly Summary for Saturday, July 7, 2018
Hour Temp
(f)
RH
(%)
Solar Rad.
(MJ/m2)
Rainfall
(in)
Wind
(mph)
7/7/2018 12:00 AM 75 82 0 0 0.02
7/7/2018 1:00 AM 74 86 0 0 0
7/7/2018 2:00 AM 74 89 0 0 0
7/7/2018 3:00 AM 73 89 0 0 0
7/7/2018 4:00 AM 72 91 0 0 0.01
7/7/2018 5:00 AM 72 90 0 0 0.01
7/7/2018 6:00 AM 72 90 0.05 0 0
7/7/2018 7:00 AM 75 79 0.4 0 0.15
7/7/2018 8:00 AM 78 75 0.52 0 0.33
7/7/2018 9:00 AM 81 62 1.47 0 1.47
7/7/2018 10:00 AM 85 55 2.4 0 2.19
7/7/2018 11:00 AM 86 54 2.67 0 3.4
7/7/2018 12:00 PM 81 56 0.62 0 2.04
7/7/2018 1:00 PM 76 77 1.3 0 1.29
7/7/2018 2:00 PM 81 67 2.44 0 1.26
7/7/2018 3:00 PM 79 72 0.7 0 1.09
7/7/2018 4:00 PM 78 77 0.76 0 1.32
7/7/2018 5:00 PM 78 78 0.52 0 2.37
7/7/2018 6:00 PM 77 87 0.23 0 2.48
7/7/2018 7:00 PM 75 85 0.13 0 2.1
7/7/2018 8:00 PM 75 87 0.01 0 1.19
7/7/2018 9:00 PM 74 88 0 0 0.51
7/7/2018 10:00 PM 74 88 0 0 0.77
7/7/2018 11:00 PM 73 89 0 0 0
Data Summary 76 78 14.22 0.00 1.00